Olympic Dam Airport

Airport
ICAO code: 
YOLD
IATA Code: 
OLP
Summary
ICAO Region: 
APAC
Territory: 
Location: 
Olympic Dam, South Australia
Serving: 
Olympic Dam
Elevation: 
343 ft
Coordinates: 
Aerial View: 
30° 29' 6" S, 136° 52' 37.2" E
Metar
Observation
YOLD 020000Z AUTO 21008KT 9999 // NCD 29/13 Q1014
Station
Olympic Dam Airport
Date/Time
2021-12-02 00:00:00
Wind direction
210°
Wind speed
08 kts
Lowest cloud amount
no clouds detected
Temperature
29°C
Dew point
13°C
Humidity
37%
QNH
1014 hPa
Weather condition
n/a

Runways

Designator Length Width Surface Rops
6/24 1591 30 ASP No/No
Airport map: 
Aerial View: 

SKYbrary Partners:

Safety knowledge contributed by: